sensor_id;sensor_type;location;lat;lon;timestamp;pressure;altitude;pressure_sealevel;temperature;humidity
28921;BME280;16035;53.594;9.952;2023-12-20T00:00:51;100854.78;;;7.05;82.75
28921;BME280;16035;53.594;9.952;2023-12-20T00:02:51;100842.81;;;7.01;82.66
28921;BME280;16035;53.594;9.952;2023-12-20T00:04:51;100839.25;;;7.01;82.83
28921;BME280;16035;53.594;9.952;2023-12-20T00:06:52;100846.41;;;6.95;82.38
28921;BME280;16035;53.594;9.952;2023-12-20T00:08:52;100840.66;;;6.92;82.61
28921;BME280;16035;53.594;9.952;2023-12-20T00:10:53;100839.84;;;6.91;82.56
28921;BME280;16035;53.594;9.952;2023-12-20T00:12:54;100836.91;;;6.93;82.48
28921;BME280;16035;53.594;9.952;2023-12-20T00:14:54;100840.09;;;6.90;82.64
28921;BME280;16035;53.594;9.952;2023-12-20T00:16:54;100839.97;;;6.84;82.74
28921;BME280;16035;53.594;9.952;2023-12-20T00:18:55;100836.56;;;6.89;82.53
28921;BME280;16035;53.594;9.952;2023-12-20T00:20:55;100834.78;;;6.83;82.59
28921;BME280;16035;53.594;9.952;2023-12-20T00:22:56;100835.25;;;6.80;82.41
28921;BME280;16035;53.594;9.952;2023-12-20T00:24:57;100827.16;;;6.80;83.00
28921;BME280;16035;53.594;9.952;2023-12-20T00:26:58;100826.69;;;6.83;82.63
28921;BME280;16035;53.594;9.952;2023-12-20T00:28:58;100828.91;;;6.86;82.92
28921;BME280;16035;53.594;9.952;2023-12-20T00:30:58;100838.09;;;6.85;82.11
28921;BME280;16035;53.594;9.952;2023-12-20T00:32:59;100827.03;;;6.87;82.62
28921;BME280;16035;53.594;9.952;2023-12-20T00:34:59;100817.66;;;6.89;82.12
28921;BME280;16035;53.594;9.952;2023-12-20T00:36:59;100806.50;;;6.86;82.00
28921;BME280;16035;53.594;9.952;2023-12-20T00:38:59;100813.66;;;6.80;82.40
28921;BME280;16035;53.594;9.952;2023-12-20T00:41:00;100812.22;;;6.77;82.06
28921;BME280;16035;53.594;9.952;2023-12-20T00:43:00;100810.94;;;6.68;82.45
28921;BME280;16035;53.594;9.952;2023-12-20T00:45:01;100812.56;;;6.69;82.70
28921;BME280;16035;53.594;9.952;2023-12-20T00:47:02;100808.59;;;6.72;82.54
28921;BME280;16035;53.594;9.952;2023-12-20T00:49:03;100799.44;;;6.73;82.62
28921;BME280;16035;53.594;9.952;2023-12-20T00:51:03;100797.56;;;6.73;82.73
28921;BME280;16035;53.594;9.952;2023-12-20T00:53:04;100804.13;;;6.77;82.92
28921;BME280;16035;53.594;9.952;2023-12-20T00:57:07;100798.03;;;6.94;82.05
28921;BME280;16035;53.594;9.952;2023-12-20T00:59:07;100800.50;;;6.95;82.10
28921;BME280;16035;53.594;9.952;2023-12-20T01:01:07;100784.53;;;6.94;81.77
28921;BME280;16035;53.594;9.952;2023-12-20T01:03:08;100790.03;;;6.87;82.19
28921;BME280;16035;53.594;9.952;2023-12-20T01:05:08;100774.41;;;6.77;82.15
28921;BME280;16035;53.594;9.952;2023-12-20T01:07:09;100780.63;;;6.78;82.07
28921;BME280;16035;53.594;9.952;2023-12-20T01:09:09;100782.16;;;6.74;81.84
28921;BME280;16035;53.594;9.952;2023-12-20T01:11:10;100789.13;;;6.70;82.13
28921;BME280;16035;53.594;9.952;2023-12-20T01:13:10;100786.88;;;6.67;82.04
28921;BME280;16035;53.594;9.952;2023-12-20T01:15:10;100784.88;;;6.62;82.02
28921;BME280;16035;53.594;9.952;2023-12-20T01:17:12;100784.75;;;6.57;82.03
28921;BME280;16035;53.594;9.952;2023-12-20T01:19:12;100785.47;;;6.52;82.07
28921;BME280;16035;53.594;9.952;2023-12-20T01:21:13;100782.28;;;6.55;82.18
28921;BME280;16035;53.594;9.952;2023-12-20T01:23:14;100781.69;;;6.53;81.85
28921;BME280;16035;53.594;9.952;2023-12-20T01:25:14;100777.34;;;6.52;81.62
28921;BME280;16035;53.594;9.952;2023-12-20T01:27:14;100778.41;;;6.51;81.60
28921;BME280;16035;53.594;9.952;2023-12-20T01:29:15;100777.09;;;6.42;81.85
28921;BME280;16035;53.594;9.952;2023-12-20T01:31:16;100777.34;;;6.41;81.64
28921;BME280;16035;53.594;9.952;2023-12-20T01:33:16;100766.16;;;6.37;81.93
28921;BME280;16035;53.594;9.952;2023-12-20T01:35:16;100778.28;;;6.35;81.94
28921;BME280;16035;53.594;9.952;2023-12-20T01:37:17;100780.59;;;6.31;81.60
28921;BME280;16035;53.594;9.952;2023-12-20T01:39:17;100787.53;;;6.27;82.00
28921;BME280;16035;53.594;9.952;2023-12-20T01:41:18;100784.81;;;6.27;81.93
28921;BME280;16035;53.594;9.952;2023-12-20T01:43:18;100769.09;;;6.24;81.79
28921;BME280;16035;53.594;9.952;2023-12-20T01:45:18;100768.88;;;6.25;81.78
28921;BME280;16035;53.594;9.952;2023-12-20T01:47:19;100759.47;;;6.28;81.86
28921;BME280;16035;53.594;9.952;2023-12-20T01:49:19;100772.97;;;6.28;81.80
28921;BME280;16035;53.594;9.952;2023-12-20T01:51:20;100764.50;;;6.24;81.78
28921;BME280;16035;53.594;9.952;2023-12-20T01:53:22;100767.81;;;6.26;81.69
28921;BME280;16035;53.594;9.952;2023-12-20T01:55:25;100762.28;;;6.33;81.82
28921;BME280;16035;53.594;9.952;2023-12-20T01:57:25;100773.22;;;6.38;81.50
28921;BME280;16035;53.594;9.952;2023-12-20T01:59:26;100762.91;;;6.35;81.96
28921;BME280;16035;53.594;9.952;2023-12-20T02:01:26;100753.38;;;6.32;81.99
28921;BME280;16035;53.594;9.952;2023-12-20T02:03:28;100757.97;;;6.32;81.58
28921;BME280;16035;53.594;9.952;2023-12-20T02:05:33;100752.44;;;6.27;81.47
28921;BME280;16035;53.594;9.952;2023-12-20T02:07:34;100746.69;;;6.23;82.16
28921;BME280;16035;53.594;9.952;2023-12-20T02:09:35;100740.47;;;6.23;82.13
28921;BME280;16035;53.594;9.952;2023-12-20T02:11:35;100742.09;;;6.24;81.83
28921;BME280;16035;53.594;9.952;2023-12-20T02:13:36;100740.47;;;6.23;81.64
28921;BME280;16035;53.594;9.952;2023-12-20T02:15:36;100729.09;;;6.21;81.78
28921;BME280;16035;53.594;9.952;2023-12-20T02:17:38;100735.53;;;6.20;81.88
28921;BME280;16035;53.594;9.952;2023-12-20T02:19:39;100728.72;;;6.17;82.16
28921;BME280;16035;53.594;9.952;2023-12-20T02:21:40;100727.31;;;6.15;82.19
28921;BME280;16035;53.594;9.952;2023-12-20T02:23:40;100738.69;;;6.17;81.98
28921;BME280;16035;53.594;9.952;2023-12-20T02:25:40;100738.81;;;6.22;82.20
28921;BME280;16035;53.594;9.952;2023-12-20T02:27:41;100735.75;;;6.18;81.52
28921;BME280;16035;53.594;9.952;2023-12-20T02:29:41;100739.03;;;6.20;82.32
28921;BME280;16035;53.594;9.952;2023-12-20T02:31:42;100727.09;;;6.28;81.86
28921;BME280;16035;53.594;9.952;2023-12-20T02:33:42;100728.63;;;6.36;81.76
28921;BME280;16035;53.594;9.952;2023-12-20T02:35:42;100724.88;;;6.37;82.13
28921;BME280;16035;53.594;9.952;2023-12-20T02:37:43;100724.03;;;6.36;81.79
28921;BME280;16035;53.594;9.952;2023-12-20T02:39:43;100721.72;;;6.40;81.83
28921;BME280;16035;53.594;9.952;2023-12-20T02:41:43;100727.22;;;6.45;81.93
28921;BME280;16035;53.594;9.952;2023-12-20T02:43:44;100727.59;;;6.48;82.18
28921;BME280;16035;53.594;9.952;2023-12-20T02:45:44;100724.53;;;6.56;81.81
28921;BME280;16035;53.594;9.952;2023-12-20T02:47:44;100720.28;;;6.61;81.93
28921;BME280;16035;53.594;9.952;2023-12-20T02:49:44;100710.31;;;6.49;81.69
28921;BME280;16035;53.594;9.952;2023-12-20T02:51:45;100712.22;;;6.49;82.31
28921;BME280;16035;53.594;9.952;2023-12-20T02:53:46;100709.38;;;6.55;81.83
28921;BME280;16035;53.594;9.952;2023-12-20T02:55:46;100714.88;;;6.61;82.34
28921;BME280;16035;53.594;9.952;2023-12-20T02:57:47;100708.09;;;6.70;81.79
28921;BME280;16035;53.594;9.952;2023-12-20T02:59:47;100701.75;;;6.76;82.00
28921;BME280;16035;53.594;9.952;2023-12-20T03:01:47;100703.03;;;6.73;82.04
28921;BME280;16035;53.594;9.952;2023-12-20T03:03:48;100701.13;;;6.74;81.59
28921;BME280;16035;53.594;9.952;2023-12-20T03:05:48;100699.75;;;6.71;81.55
28921;BME280;16035;53.594;9.952;2023-12-20T03:07:48;100687.53;;;6.69;81.36
28921;BME280;16035;53.594;9.952;2023-12-20T03:09:49;100686.97;;;6.67;81.58
28921;BME280;16035;53.594;9.952;2023-12-20T03:11:49;100689.66;;;6.67;81.29
28921;BME280;16035;53.594;9.952;2023-12-20T03:13:49;100688.94;;;6.59;81.13
28921;BME280;16035;53.594;9.952;2023-12-20T03:15:49;100696.59;;;6.51;81.82
28921;BME280;16035;53.594;9.952;2023-12-20T03:17:50;100685.56;;;6.52;81.45
28921;BME280;16035;53.594;9.952;2023-12-20T03:19:50;100683.91;;;6.51;81.45
28921;BME280;16035;53.594;9.952;2023-12-20T03:21:50;100680.28;;;6.46;81.41
28921;BME280;16035;53.594;9.952;2023-12-20T03:23:53;100686.03;;;6.49;81.55
28921;BME280;16035;53.594;9.952;2023-12-20T03:25:53;100680.63;;;6.49;81.53
28921;BME280;16035;53.594;9.952;2023-12-20T03:27:53;100679.91;;;6.54;81.71
28921;BME280;16035;53.594;9.952;2023-12-20T03:29:54;100674.88;;;6.57;81.56
28921;BME280;16035;53.594;9.952;2023-12-20T03:31:54;100673.25;;;6.56;81.56
28921;BME280;16035;53.594;9.952;2023-12-20T03:33:54;100665.47;;;6.60;82.12
28921;BME280;16035;53.594;9.952;2023-12-20T03:35:55;100673.91;;;6.64;81.91
28921;BME280;16035;53.594;9.952;2023-12-20T03:37:55;100660.41;;;6.64;81.54
28921;BME280;16035;53.594;9.952;2023-12-20T03:39:57;100670.53;;;6.56;81.27
28921;BME280;16035;53.594;9.952;2023-12-20T03:41:57;100660.88;;;6.61;81.63
28921;BME280;16035;53.594;9.952;2023-12-20T03:43:57;100667.13;;;6.61;81.79
28921;BME280;16035;53.594;9.952;2023-12-20T03:45:57;100661.13;;;6.59;81.18
28921;BME280;16035;53.594;9.952;2023-12-20T03:47:58;100659.84;;;6.62;81.46
28921;BME280;16035;53.594;9.952;2023-12-20T03:49:59;100655.16;;;6.57;81.25
28921;BME280;16035;53.594;9.952;2023-12-20T03:51:59;100649.50;;;6.58;81.49
28921;BME280;16035;53.594;9.952;2023-12-20T03:53:59;100653.75;;;6.54;81.40
28921;BME280;16035;53.594;9.952;2023-12-20T03:56:00;100643.28;;;6.58;81.03
28921;BME280;16035;53.594;9.952;2023-12-20T03:58:00;100645.19;;;6.57;81.31
28921;BME280;16035;53.594;9.952;2023-12-20T04:00:00;100652.31;;;6.64;81.57
28921;BME280;16035;53.594;9.952;2023-12-20T04:02:01;100648.81;;;6.63;81.41
28921;BME280;16035;53.594;9.952;2023-12-20T04:04:02;100655.38;;;6.67;81.35
28921;BME280;16035;53.594;9.952;2023-12-20T04:06:02;100639.16;;;6.67;81.27
28921;BME280;16035;53.594;9.952;2023-12-20T04:08:03;100633.41;;;6.64;81.48
28921;BME280;16035;53.594;9.952;2023-12-20T04:10:04;100643.28;;;6.58;81.40
28921;BME280;16035;53.594;9.952;2023-12-20T04:12:05;100644.34;;;6.57;81.46
28921;BME280;16035;53.594;9.952;2023-12-20T04:14:06;100628.00;;;6.64;81.54
28921;BME280;16035;53.594;9.952;2023-12-20T04:16:07;100631.78;;;6.63;81.85
28921;BME280;16035;53.594;9.952;2023-12-20T04:18:07;100622.25;;;6.60;81.63
28921;BME280;16035;53.594;9.952;2023-12-20T04:20:08;100623.56;;;6.57;81.57
28921;BME280;16035;53.594;9.952;2023-12-20T04:22:08;100615.22;;;6.59;81.49
28921;BME280;16035;53.594;9.952;2023-12-20T04:24:09;100607.03;;;6.54;81.51
28921;BME280;16035;53.594;9.952;2023-12-20T04:26:10;100601.97;;;6.57;81.31
28921;BME280;16035;53.594;9.952;2023-12-20T04:28:10;100595.50;;;6.58;81.18
28921;BME280;16035;53.594;9.952;2023-12-20T04:30:11;100598.69;;;6.55;81.50
28921;BME280;16035;53.594;9.952;2023-12-20T04:32:11;100592.56;;;6.60;81.36
28921;BME280;16035;53.594;9.952;2023-12-20T04:34:12;100603.34;;;6.60;81.24
28921;BME280;16035;53.594;9.952;2023-12-20T04:36:12;100591.88;;;6.53;81.15
28921;BME280;16035;53.594;9.952;2023-12-20T04:38:12;100587.78;;;6.50;81.11
28921;BME280;16035;53.594;9.952;2023-12-20T04:40:13;100583.69;;;6.48;81.72
28921;BME280;16035;53.594;9.952;2023-12-20T04:42:13;100590.94;;;6.47;81.42
28921;BME280;16035;53.594;9.952;2023-12-20T04:44:14;100574.75;;;6.47;81.18
28921;BME280;16035;53.594;9.952;2023-12-20T04:46:14;100579.94;;;6.49;81.25
28921;BME280;16035;53.594;9.952;2023-12-20T04:48:14;100579.31;;;6.47;80.94
28921;BME280;16035;53.594;9.952;2023-12-20T04:50:15;100578.50;;;6.46;81.22
28921;BME280;16035;53.594;9.952;2023-12-20T04:52:15;100580.84;;;6.54;81.52
28921;BME280;16035;53.594;9.952;2023-12-20T04:54:16;100573.81;;;6.53;81.41
28921;BME280;16035;53.594;9.952;2023-12-20T04:56:16;100578.75;;;6.56;81.47
28921;BME280;16035;53.594;9.952;2023-12-20T04:58:16;100575.31;;;6.61;81.02
28921;BME280;16035;53.594;9.952;2023-12-20T05:00:17;100575.19;;;6.68;80.98
28921;BME280;16035;53.594;9.952;2023-12-20T05:02:18;100569.31;;;6.71;80.62
28921;BME280;16035;53.594;9.952;2023-12-20T05:04:18;100567.41;;;6.71;80.65
28921;BME280;16035;53.594;9.952;2023-12-20T05:06:18;100565.19;;;6.68;80.70
28921;BME280;16035;53.594;9.952;2023-12-20T05:08:19;100567.06;;;6.68;80.94
28921;BME280;16035;53.594;9.952;2023-12-20T05:10:19;100554.03;;;6.65;80.63
28921;BME280;16035;53.594;9.952;2023-12-20T05:12:20;100566.97;;;6.63;80.68
28921;BME280;16035;53.594;9.952;2023-12-20T05:14:20;100561.94;;;6.66;81.03
28921;BME280;16035;53.594;9.952;2023-12-20T05:16:20;100565.44;;;6.67;80.93
28921;BME280;16035;53.594;9.952;2023-12-20T05:18:21;100557.09;;;6.68;80.88
28921;BME280;16035;53.594;9.952;2023-12-20T05:20:23;100556.88;;;6.70;80.90
28921;BME280;16035;53.594;9.952;2023-12-20T05:22:24;100552.72;;;6.79;80.88
28921;BME280;16035;53.594;9.952;2023-12-20T05:24:24;100551.41;;;6.81;80.77
28921;BME280;16035;53.594;9.952;2023-12-20T05:26:24;100546.72;;;6.77;80.15
28921;BME280;16035;53.594;9.952;2023-12-20T05:28:24;100558.69;;;6.81;80.92
28921;BME280;16035;53.594;9.952;2023-12-20T05:30:25;100548.38;;;6.78;80.63
28921;BME280;16035;53.594;9.952;2023-12-20T05:32:26;100549.53;;;6.82;80.31
28921;BME280;16035;53.594;9.952;2023-12-20T05:34:27;100554.81;;;6.89;80.52
28921;BME280;16035;53.594;9.952;2023-12-20T05:36:27;100542.34;;;6.88;80.18
28921;BME280;16035;53.594;9.952;2023-12-20T05:38:28;100550.69;;;6.86;80.44
28921;BME280;16035;53.594;9.952;2023-12-20T05:40:28;100555.19;;;6.80;80.63
28921;BME280;16035;53.594;9.952;2023-12-20T05:42:29;100548.63;;;6.76;80.65
28921;BME280;16035;53.594;9.952;2023-12-20T05:44:29;100556.25;;;6.79;80.87
28921;BME280;16035;53.594;9.952;2023-12-20T05:46:29;100553.75;;;6.78;81.05
28921;BME280;16035;53.594;9.952;2023-12-20T05:48:30;100556.81;;;6.81;80.90
28921;BME280;16035;53.594;9.952;2023-12-20T05:50:30;100549.31;;;6.83;81.11
28921;BME280;16035;53.594;9.952;2023-12-20T05:52:30;100555.28;;;6.86;80.60
28921;BME280;16035;53.594;9.952;2023-12-20T05:54:31;100553.03;;;6.82;80.63
28921;BME280;16035;53.594;9.952;2023-12-20T05:56:31;100546.25;;;6.80;80.78
28921;BME280;16035;53.594;9.952;2023-12-20T05:58:32;100538.97;;;6.80;80.64
28921;BME280;16035;53.594;9.952;2023-12-20T06:00:33;100544.75;;;6.72;81.01
28921;BME280;16035;53.594;9.952;2023-12-20T06:02:33;100537.66;;;6.83;81.48
28921;BME280;16035;53.594;9.952;2023-12-20T06:04:34;100535.44;;;6.80;80.99
28921;BME280;16035;53.594;9.952;2023-12-20T06:06:34;100533.56;;;6.80;81.15
28921;BME280;16035;53.594;9.952;2023-12-20T06:08:36;100535.44;;;6.80;81.47
28921;BME280;16035;53.594;9.952;2023-12-20T06:10:36;100537.88;;;6.93;81.33
28921;BME280;16035;53.594;9.952;2023-12-20T06:12:37;100524.44;;;6.98;81.05
28921;BME280;16035;53.594;9.952;2023-12-20T06:14:37;100521.31;;;6.90;80.42
28921;BME280;16035;53.594;9.952;2023-12-20T06:16:37;100520.16;;;6.86;80.56
28921;BME280;16035;53.594;9.952;2023-12-20T06:18:38;100518.34;;;6.74;80.68
28921;BME280;16035;53.594;9.952;2023-12-20T06:20:38;100516.94;;;6.72;80.94
28921;BME280;16035;53.594;9.952;2023-12-20T06:22:39;100510.03;;;6.64;80.88
28921;BME280;16035;53.594;9.952;2023-12-20T06:24:39;100512.38;;;6.61;81.41
28921;BME280;16035;53.594;9.952;2023-12-20T06:26:40;100506.16;;;6.60;81.03
28921;BME280;16035;53.594;9.952;2023-12-20T06:28:40;100509.94;;;6.59;81.09
28921;BME280;16035;53.594;9.952;2023-12-20T06:30:40;100514.03;;;6.62;81.00
28921;BME280;16035;53.594;9.952;2023-12-20T06:32:41;100518.72;;;6.66;81.39
28921;BME280;16035;53.594;9.952;2023-12-20T06:34:42;100523.63;;;6.69;81.24
28921;BME280;16035;53.594;9.952;2023-12-20T06:36:42;100510.72;;;6.71;80.74
28921;BME280;16035;53.594;9.952;2023-12-20T06:38:43;100507.19;;;6.71;80.91
28921;BME280;16035;53.594;9.952;2023-12-20T06:40:43;100499.19;;;6.76;80.90
28921;BME280;16035;53.594;9.952;2023-12-20T06:42:44;100507.84;;;6.78;81.02
28921;BME280;16035;53.594;9.952;2023-12-20T06:44:44;100485.94;;;6.74;81.10
28921;BME280;16035;53.594;9.952;2023-12-20T06:46:44;100490.00;;;6.77;81.01
28921;BME280;16035;53.594;9.952;2023-12-20T06:48:45;100490.25;;;6.75;80.76
28921;BME280;16035;53.594;9.952;2023-12-20T06:50:45;100496.38;;;6.71;80.67
28921;BME280;16035;53.594;9.952;2023-12-20T06:52:45;100501.09;;;6.64;80.74
28921;BME280;16035;53.594;9.952;2023-12-20T06:54:46;100481.94;;;6.65;81.22
28921;BME280;16035;53.594;9.952;2023-12-20T06:56:46;100481.94;;;6.65;81.35
28921;BME280;16035;53.594;9.952;2023-12-20T06:58:46;100468.94;;;6.62;80.94
28921;BME280;16035;53.594;9.952;2023-12-20T07:00:47;100483.63;;;6.66;81.43
28921;BME280;16035;53.594;9.952;2023-12-20T07:02:48;100471.50;;;6.69;81.38
28921;BME280;16035;53.594;9.952;2023-12-20T07:04:48;100459.06;;;6.68;81.38
28921;BME280;16035;53.594;9.952;2023-12-20T07:06:48;100460.47;;;6.70;81.49
28921;BME280;16035;53.594;9.952;2023-12-20T07:08:52;100463.47;;;6.74;80.83
28921;BME280;16035;53.594;9.952;2023-12-20T07:10:52;100450.72;;;6.69;80.90
28921;BME280;16035;53.594;9.952;2023-12-20T07:12:52;100466.34;;;6.67;80.96
28921;BME280;16035;53.594;9.952;2023-12-20T07:14:55;100464.72;;;6.66;80.91
28921;BME280;16035;53.594;9.952;2023-12-20T07:16:56;100462.81;;;6.67;80.94
28921;BME280;16035;53.594;9.952;2023-12-20T07:18:57;100468.78;;;6.69;81.00
28921;BME280;16035;53.594;9.952;2023-12-20T07:20:57;100460.22;;;6.72;81.02
28921;BME280;16035;53.594;9.952;2023-12-20T07:22:57;100468.88;;;6.74;80.72
28921;BME280;16035;53.594;9.952;2023-12-20T07:24:58;100467.03;;;6.74;81.07
28921;BME280;16035;53.594;9.952;2023-12-20T07:27:00;100464.88;;;6.76;81.15
28921;BME280;16035;53.594;9.952;2023-12-20T07:29:00;100468.50;;;6.82;80.53
28921;BME280;16035;53.594;9.952;2023-12-20T07:31:00;100465.06;;;6.87;80.56
28921;BME280;16035;53.594;9.952;2023-12-20T07:33:01;100462.44;;;6.92;80.55
28921;BME280;16035;53.594;9.952;2023-12-20T07:35:02;100470.56;;;6.92;80.50
28921;BME280;16035;53.594;9.952;2023-12-20T07:37:03;100451.91;;;6.90;80.42
28921;BME280;16035;53.594;9.952;2023-12-20T07:39:04;100466.31;;;6.96;80.37
28921;BME280;16035;53.594;9.952;2023-12-20T07:41:04;100457.97;;;6.97;80.60
28921;BME280;16035;53.594;9.952;2023-12-20T07:43:05;100456.31;;;6.96;80.49
28921;BME280;16035;53.594;9.952;2023-12-20T07:45:05;100457.47;;;7.00;80.54
28921;BME280;16035;53.594;9.952;2023-12-20T07:47:06;100447.59;;;7.06;80.24
28921;BME280;16035;53.594;9.952;2023-12-20T07:49:06;100438.41;;;7.07;80.35
28921;BME280;16035;53.594;9.952;2023-12-20T07:51:08;100436.25;;;7.09;80.19
28921;BME280;16035;53.594;9.952;2023-12-20T07:53:10;100445.09;;;7.04;80.05
28921;BME280;16035;53.594;9.952;2023-12-20T07:55:10;100441.84;;;7.02;80.00
28921;BME280;16035;53.594;9.952;2023-12-20T07:57:11;100438.31;;;7.02;79.89
28921;BME280;16035;53.594;9.952;2023-12-20T07:59:11;100429.72;;;7.05;80.40
28921;BME280;16035;53.594;9.952;2023-12-20T08:01:12;100430.63;;;7.11;80.10
28921;BME280;16035;53.594;9.952;2023-12-20T08:03:12;100442.00;;;7.13;80.21
28921;BME280;16035;53.594;9.952;2023-12-20T08:05:12;100450.13;;;7.13;80.11
28921;BME280;16035;53.594;9.952;2023-12-20T08:07:13;100434.16;;;7.11;80.09
28921;BME280;16035;53.594;9.952;2023-12-20T08:09:14;100433.41;;;7.16;80.45
28921;BME280;16035;53.594;9.952;2023-12-20T08:11:15;100433.56;;;7.26;80.69
28921;BME280;16035;53.594;9.952;2023-12-20T08:13:15;100431.47;;;7.28;79.80
28921;BME280;16035;53.594;9.952;2023-12-20T08:15:16;100420.38;;;7.29;79.63
28921;BME280;16035;53.594;9.952;2023-12-20T08:17:16;100424.38;;;7.27;79.88
28921;BME280;16035;53.594;9.952;2023-12-20T08:19:18;100408.69;;;7.24;79.75
28921;BME280;16035;53.594;9.952;2023-12-20T08:21:18;100411.47;;;7.29;80.24
28921;BME280;16035;53.594;9.952;2023-12-20T08:23:20;100400.13;;;7.32;79.92
28921;BME280;16035;53.594;9.952;2023-12-20T08:25:21;100407.13;;;7.28;79.64
28921;BME280;16035;53.594;9.952;2023-12-20T08:27:21;100405.25;;;7.28;80.09
28921;BME280;16035;53.594;9.952;2023-12-20T08:29:21;100395.81;;;7.31;79.79
28921;BME280;16035;53.594;9.952;2023-12-20T08:31:22;100390.16;;;7.32;79.96
28921;BME280;16035;53.594;9.952;2023-12-20T08:33:22;100389.84;;;7.29;79.92
28921;BME280;16035;53.594;9.952;2023-12-20T08:35:22;100385.50;;;7.28;79.56
28921;BME280;16035;53.594;9.952;2023-12-20T08:37:24;100403.34;;;7.29;79.48
28921;BME280;16035;53.594;9.952;2023-12-20T08:39:24;100371.66;;;7.41;79.74
28921;BME280;16035;53.594;9.952;2023-12-20T08:41:24;100380.88;;;7.45;79.52
28921;BME280;16035;53.594;9.952;2023-12-20T08:43:25;100383.06;;;7.48;79.85
28921;BME280;16035;53.594;9.952;2023-12-20T08:45:25;100396.19;;;7.56;79.09
28921;BME280;16035;53.594;9.952;2023-12-20T08:47:25;100382.66;;;7.56;79.00
28921;BME280;16035;53.594;9.952;2023-12-20T08:49:27;100365.41;;;7.63;79.46
28921;BME280;16035;53.594;9.952;2023-12-20T08:51:28;100384.88;;;7.59;79.30
28921;BME280;16035;53.594;9.952;2023-12-20T08:53:29;100386.44;;;7.55;79.39
28921;BME280;16035;53.594;9.952;2023-12-20T08:55:29;100381.25;;;7.54;79.88
28921;BME280;16035;53.594;9.952;2023-12-20T08:57:31;100385.28;;;7.51;79.35
28921;BME280;16035;53.594;9.952;2023-12-20T08:59:32;100376.31;;;7.46;80.14
28921;BME280;16035;53.594;9.952;2023-12-20T09:01:32;100375.97;;;7.42;79.65
28921;BME280;16035;53.594;9.952;2023-12-20T09:03:33;100380.47;;;7.37;79.81
28921;BME280;16035;53.594;9.952;2023-12-20T09:05:33;100373.69;;;7.34;79.88
28921;BME280;16035;53.594;9.952;2023-12-20T09:07:33;100367.16;;;7.30;79.91
28921;BME280;16035;53.594;9.952;2023-12-20T09:09:34;100365.19;;;7.25;80.01
28921;BME280;16035;53.594;9.952;2023-12-20T09:11:34;100373.44;;;7.19;80.35
28921;BME280;16035;53.594;9.952;2023-12-20T09:13:34;100375.34;;;7.18;80.56
28921;BME280;16035;53.594;9.952;2023-12-20T09:15:35;100384.50;;;7.17;80.29
28921;BME280;16035;53.594;9.952;2023-12-20T09:17:35;100381.56;;;7.19;80.55
28921;BME280;16035;53.594;9.952;2023-12-20T09:19:35;100391.81;;;7.17;80.62
28921;BME280;16035;53.594;9.952;2023-12-20T09:21:35;100401.00;;;7.16;80.87
28921;BME280;16035;53.594;9.952;2023-12-20T09:23:36;100404.84;;;7.20;80.53
28921;BME280;16035;53.594;9.952;2023-12-20T09:25:36;100395.59;;;7.16;80.74
28921;BME280;16035;53.594;9.952;2023-12-20T09:27:37;100389.03;;;7.12;80.34
28921;BME280;16035;53.594;9.952;2023-12-20T09:29:37;100386.34;;;7.12;80.41
28921;BME280;16035;53.594;9.952;2023-12-20T09:31:38;100385.50;;;7.11;80.31
28921;BME280;16035;53.594;9.952;2023-12-20T09:33:38;100380.34;;;7.09;80.18
28921;BME280;16035;53.594;9.952;2023-12-20T09:35:38;100392.22;;;7.08;80.28
28921;BME280;16035;53.594;9.952;2023-12-20T09:37:39;100402.13;;;7.20;80.59
28921;BME280;16035;53.594;9.952;2023-12-20T09:39:41;100406.28;;;7.27;80.22
28921;BME280;16035;53.594;9.952;2023-12-20T09:41:48;100426.19;;;7.38;79.92
28921;BME280;16035;53.594;9.952;2023-12-20T09:43:54;100428.56;;;7.34;79.26
28921;BME280;16035;53.594;9.952;2023-12-20T09:46:00;100415.84;;;7.52;79.88
28921;BME280;16035;53.594;9.952;2023-12-20T09:48:01;100421.16;;;7.64;79.58
28921;BME280;16035;53.594;9.952;2023-12-20T09:50:03;100426.81;;;7.62;78.92
28921;BME280;16035;53.594;9.952;2023-12-20T09:52:04;100431.50;;;7.50;78.64
28921;BME280;16035;53.594;9.952;2023-12-20T09:54:07;100425.59;;;7.36;78.85
28921;BME280;16035;53.594;9.952;2023-12-20T09:56:08;100417.84;;;7.23;78.38
28921;BME280;16035;53.594;9.952;2023-12-20T09:58:08;100417.13;;;7.11;78.84
28921;BME280;16035;53.594;9.952;2023-12-20T10:00:09;100408.34;;;7.03;78.85
28921;BME280;16035;53.594;9.952;2023-12-20T10:02:13;100404.25;;;7.01;79.12
28921;BME280;16035;53.594;9.952;2023-12-20T10:04:16;100398.28;;;6.99;79.10
28921;BME280;16035;53.594;9.952;2023-12-20T10:06:17;100392.63;;;7.00;79.17
28921;BME280;16035;53.594;9.952;2023-12-20T10:08:20;100405.41;;;6.88;77.93
28921;BME280;16035;53.594;9.952;2023-12-20T10:10:21;100399.41;;;6.86;78.51
28921;BME280;16035;53.594;9.952;2023-12-20T10:12:22;100410.88;;;6.76;78.82
28921;BME280;16035;53.594;9.952;2023-12-20T10:14:23;100418.59;;;6.84;78.97
28921;BME280;16035;53.594;9.952;2023-12-20T10:16:24;100430.88;;;6.92;79.25
28921;BME280;16035;53.594;9.952;2023-12-20T10:18:25;100440.69;;;6.98;79.09
28921;BME280;16035;53.594;9.952;2023-12-20T10:20:26;100430.16;;;6.97;78.24
28921;BME280;16035;53.594;9.952;2023-12-20T10:22:26;100434.88;;;6.90;78.46
28921;BME280;16035;53.594;9.952;2023-12-20T10:24:30;100432.81;;;6.80;78.96
28921;BME280;16035;53.594;9.952;2023-12-20T10:26:31;100421.75;;;6.81;78.52
28921;BME280;16035;53.594;9.952;2023-12-20T10:28:34;100412.94;;;6.86;78.74
28921;BME280;16035;53.594;9.952;2023-12-20T10:30:35;100417.75;;;7.01;78.59
28921;BME280;16035;53.594;9.952;2023-12-20T10:32:36;100416.88;;;7.12;79.05
28921;BME280;16035;53.594;9.952;2023-12-20T10:34:36;100412.03;;;7.14;78.33
28921;BME280;16035;53.594;9.952;2023-12-20T10:36:36;100395.19;;;7.07;78.75
28921;BME280;16035;53.594;9.952;2023-12-20T10:38:37;100405.50;;;7.10;78.43
28921;BME280;16035;53.594;9.952;2023-12-20T10:40:41;100409.66;;;7.18;78.72